Time;durP1;ratioP1;P1;durP2;ratioP2;P2;SDS_P1;SDS_P2;PMS_P1;PMS_P2;Temp;Humidity;BMP_temperature;BMP_pressure;BME280_temperature;BME280_humidity;BME280_pressure;Samples;Min_cycle;Max_cycle;Signal;HPM_P1;HPM_P2
2022/05/25 00:00:11;;;;;;;2.38;0.80;;;;;;;;;;512913;28;1422;-85
2022/05/25 00:00:27;;;;;;;2.08;0.80;;;;;;;;;;513144;28;1556;-86
2022/05/25 00:00:42;;;;;;;1.87;0.80;;;;;;;;;;515355;28;1444;-86
2022/05/25 00:01:00;;;;;;;1.67;0.80;;;;;;;;;;516770;28;1536;-85
2022/05/25 00:01:15;;;;;;;3.50;0.95;;;;;;;;;;516715;28;1539;-86
2022/05/25 00:01:32;;;;;;;2.77;1.00;;;;;;;;;;516770;28;1496;-86
2022/05/25 00:01:48;;;;;;;2.40;0.80;;;;;;;;;;518949;28;1493;-85
2022/05/25 00:02:04;;;;;;;2.28;0.88;;;;;;;;;;517979;28;1491;-85
2022/05/25 00:02:22;;;;;;;2.92;0.98;;;;;;;;;;516814;28;1445;-86
2022/05/25 00:02:39;;;;;;;2.70;0.90;;;;;;;;;;517073;28;1534;-86
2022/05/25 00:02:54;;;;;;;3.05;0.90;;;;;;;;;;518090;28;1609;-86
2022/05/25 00:03:10;;;;;;;3.20;0.90;;;;;;;;;;517758;28;1522;-85
2022/05/25 00:03:28;;;;;;;2.15;0.80;;;;;;;;;;516589;28;1513;-86
2022/05/25 00:03:43;;;;;;;1.92;0.80;;;;;;;;;;516038;28;1616;-86
2022/05/25 00:04:00;;;;;;;1.80;0.80;;;;;;;;;;516971;28;1426;-86
2022/05/25 00:04:17;;;;;;;2.30;0.90;;;;;;;;;;516749;28;1686;-86
2022/05/25 00:04:33;;;;;;;2.08;0.80;;;;;;;;;;516330;28;1475;-85
2022/05/25 00:04:49;;;;;;;2.00;0.80;;;;;;;;;;516550;28;1536;-86
2022/05/25 00:05:06;;;;;;;2.03;0.90;;;;;;;;;;518557;28;1613;-86
2022/05/25 00:05:21;;;;;;;2.55;0.88;;;;;;;;;;516399;28;1651;-86
2022/05/25 00:05:37;;;;;;;1.83;0.70;;;;;;;;;;516997;28;1471;-86
2022/05/25 00:05:53;;;;;;;1.40;0.75;;;;;;;;;;516747;28;1624;-86
2022/05/25 00:06:10;;;;;;;1.23;0.80;;;;;;;;;;515231;28;1418;-86
2022/05/25 00:06:25;;;;;;;1.50;0.90;;;;;;;;;;515064;28;1381;-86
2022/05/25 00:06:41;;;;;;;1.63;0.87;;;;;;;;;;515648;28;1499;-86
2022/05/25 00:06:57;;;;;;;1.20;0.80;;;;;;;;;;517344;28;1518;-85
2022/05/25 00:07:12;;;;;;;1.45;0.80;;;;;;;;;;516798;28;1440;-86
2022/05/25 00:07:28;;;;;;;2.45;0.90;;;;;;;;;;517889;28;1713;-85
2022/05/25 00:07:44;;;;;;;2.73;1.00;;;;;;;;;;516091;28;1567;-85
2022/05/25 00:08:00;;;;;;;2.40;0.98;;;;;;;;;;516246;28;1554;-86
2022/05/25 00:08:16;;;;;;;2.65;0.85;;;;;;;;;;514940;28;1561;-85
2022/05/25 00:08:32;;;;;;;2.10;0.73;;;;;;;;;;514868;28;1397;-85
2022/05/25 00:08:47;;;;;;;4.00;0.90;;;;;;;;;;514644;28;1491;-85
2022/05/25 00:09:04;;;;;;;3.80;1.00;;;;;;;;;;512728;28;1529;-85
2022/05/25 00:09:19;;;;;;;2.63;0.90;;;;;;;;;;513866;28;1526;-86
2022/05/25 00:09:35;;;;;;;2.47;0.93;;;;;;;;;;515487;28;1569;-86
2022/05/25 00:09:51;;;;;;;2.67;0.93;;;;;;;;;;517142;28;1604;-85
2022/05/25 00:10:07;;;;;;;3.45;0.90;;;;;;;;;;517097;28;1471;-86
2022/05/25 00:10:23;;;;;;;2.70;0.80;;;;;;;;;;516616;28;1467;-86
2022/05/25 00:10:39;;;;;;;2.60;0.90;;;;;;;;;;514988;28;1515;-85
2022/05/25 00:10:54;;;;;;;2.28;0.85;;;;;;;;;;513669;28;1555;-85
2022/05/25 00:11:10;;;;;;;2.03;1.00;;;;;;;;;;512834;28;1893;-85
2022/05/25 00:11:25;;;;;;;2.58;1.00;;;;;;;;;;511175;29;1413;-86
2022/05/25 00:11:41;;;;;;;2.67;0.90;;;;;;;;;;511076;29;1647;-86
2022/05/25 00:11:57;;;;;;;2.55;0.93;;;;;;;;;;512926;28;1460;-85
2022/05/25 00:12:13;;;;;;;2.37;1.00;;;;;;;;;;514682;28;1647;-86
2022/05/25 00:12:28;;;;;;;2.08;1.00;;;;;;;;;;515203;28;1504;-86
2022/05/25 00:12:43;;;;;;;2.23;0.90;;;;;;;;;;515002;28;1456;-86
2022/05/25 00:12:59;;;;;;;2.55;0.90;;;;;;;;;;516033;28;1482;-86
2022/05/25 00:13:15;;;;;;;2.33;0.90;;;;;;;;;;518124;28;1841;-86
2022/05/25 00:13:30;;;;;;;2.70;0.90;;;;;;;;;;515501;28;1483;-86
2022/05/25 00:13:45;;;;;;;3.77;1.20;;;;;;;;;;513977;28;1452;-86
2022/05/25 00:14:02;;;;;;;4.40;1.10;;;;;;;;;;513854;28;1460;-85
2022/05/25 00:14:18;;;;;;;3.17;0.93;;;;;;;;;;514133;28;1505;-85
2022/05/25 00:14:34;;;;;;;2.85;1.00;;;;;;;;;;515838;28;1742;-85
2022/05/25 00:14:50;;;;;;;2.17;1.00;;;;;;;;;;515999;28;1400;-85
2022/05/25 00:15:07;;;;;;;2.28;1.00;;;;;;;;;;513952;28;1798;-85
2022/05/25 00:15:22;;;;;;;3.40;0.90;;;;;;;;;;512100;28;1528;-85
2022/05/25 00:15:38;;;;;;;3.38;0.90;;;;;;;;;;512524;28;1489;-85
2022/05/25 00:15:53;;;;;;;2.17;0.90;;;;;;;;;;512290;28;1519;-85
2022/05/25 00:16:08;;;;;;;1.83;0.90;;;;;;;;;;511869;28;1426;-85
2022/05/25 00:16:24;;;;;;;2.80;1.00;;;;;;;;;;511407;28;1600;-85
2022/05/25 00:16:39;;;;;;;3.33;1.00;;;;;;;;;;512132;28;1431;-85
2022/05/25 00:16:55;;;;;;;2.47;1.00;;;;;;;;;;511328;28;1988;-86
2022/05/25 00:17:10;;;;;;;1.93;0.90;;;;;;;;;;511682;28;1680;-85
2022/05/25 00:17:25;;;;;;;2.20;0.90;;;;;;;;;;511791;28;1553;-85
2022/05/25 00:17:41;;;;;;;2.95;1.10;;;;;;;;;;514088;28;1433;-85
2022/05/25 00:17:56;;;;;;;3.60;1.10;;;;;;;;;;515605;28;1752;-85
2022/05/25 00:18:12;;;;;;;2.72;0.90;;;;;;;;;;515683;28;1464;-85
2022/05/25 00:18:28;;;;;;;2.80;0.93;;;;;;;;;;513941;28;1553;-86
2022/05/25 00:20:00;;;;;;;2.25;1.00;;;;;;;;;;520088;28;1426;-85
2022/05/25 00:20:17;;;;;;;2.17;1.00;;;;;;;;;;522351;28;1429;-85
2022/05/25 00:20:34;;;;;;;2.85;1.00;;;;;;;;;;521617;28;1644;-85
2022/05/25 00:20:50;;;;;;;2.70;0.90;;;;;;;;;;521701;28;1513;-85
2022/05/25 00:21:05;;;;;;;2.22;0.90;;;;;;;;;;519588;28;1434;-85
2022/05/25 00:21:21;;;;;;;1.52;0.80;;;;;;;;;;519518;28;1620;-85
2022/05/25 00:21:37;;;;;;;2.45;0.90;;;;;;;;;;517774;28;1432;-85
2022/05/25 00:21:52;;;;;;;2.30;0.97;;;;;;;;;;517283;28;1668;-85
2022/05/25 00:22:07;;;;;;;1.40;0.90;;;;;;;;;;517670;28;1399;-85
2022/05/25 00:22:24;;;;;;;1.93;0.97;;;;;;;;;;516054;28;1627;-85
2022/05/25 00:22:48;;;;;;;2.58;0.90;;;;;;;;;;516791;28;1693;-85
2022/05/25 00:23:04;;;;;;;3.75;0.90;;;;;;;;;;517521;28;1423;-85
2022/05/25 00:23:19;;;;;;;3.47;1.00;;;;;;;;;;515278;28;1862;-85
2022/05/25 00:23:35;;;;;;;2.80;1.00;;;;;;;;;;517183;28;1569;-85
2022/05/25 00:23:50;;;;;;;3.30;1.00;;;;;;;;;;517097;28;1401;-85
2022/05/25 00:24:06;;;;;;;2.80;0.98;;;;;;;;;;515115;28;1644;-85
2022/05/25 00:24:22;;;;;;;2.85;1.00;;;;;;;;;;515198;28;1616;-85
2022/05/25 00:24:37;;;;;;;2.20;1.00;;;;;;;;;;513427;28;1428;-85
2022/05/25 00:24:56;;;;;;;2.00;0.93;;;;;;;;;;513576;28;1593;-85
2022/05/25 00:25:20;;;;;;;2.20;1.00;;;;;;;;;;513244;28;1429;-85
2022/05/25 00:25:38;;;;;;;3.70;0.90;;;;;;;;;;515376;28;1444;-85
2022/05/25 00:25:53;;;;;;;2.35;0.90;;;;;;;;;;515464;28;1674;-85
2022/05/25 00:26:08;;;;;;;3.33;1.00;;;;;;;;;;514999;28;1555;-85
2022/05/25 00:26:24;;;;;;;3.03;1.00;;;;;;;;;;512823;28;1527;-84
2022/05/25 00:26:39;;;;;;;2.30;0.90;;;;;;;;;;514861;28;1452;-84
2022/05/25 00:26:55;;;;;;;2.40;1.00;;;;;;;;;;515279;28;1487;-85
2022/05/25 00:27:10;;;;;;;3.33;1.00;;;;;;;;;;516797;28;1443;-85
2022/05/25 00:27:26;;;;;;;3.38;0.98;;;;;;;;;;516554;28;1536;-85
2022/05/25 00:27:41;;;;;;;3.50;1.00;;;;;;;;;;515323;28;1457;-86
2022/05/25 00:27:57;;;;;;;3.75;1.17;;;;;;;;;;515671;28;1695;-85
2022/05/25 00:28:13;;;;;;;2.30;1.10;;;;;;;;;;514008;28;1632;-85
2022/05/25 00:28:28;;;;;;;2.53;1.00;;;;;;;;;;514159;28;1802;-85
2022/05/25 00:28:44;;;;;;;2.47;0.90;;;;;;;;;;515882;28;1412;-85
2022/05/25 00:29:03;;;;;;;1.75;1.02;;;;;;;;;;516482;28;1849;-86
2022/05/25 00:29:19;;;;;;;1.75;0.95;;;;;;;;;;515849;28;1403;-85
2022/05/25 00:29:36;;;;;;;1.43;0.90;;;;;;;;;;513353;28;1438;-85
2022/05/25 00:29:51;;;;;;;1.58;0.90;;;;;;;;;;517023;28;1399;-85
2022/05/25 00:30:07;;;;;;;1.77;0.90;;;;;;;;;;514960;28;1735;-85
2022/05/25 00:30:25;;;;;;;2.58;0.90;;;;;;;;;;515577;28;1465;-85
2022/05/25 00:30:42;;;;;;;2.38;0.90;;;;;;;;;;514832;28;1528;-85
2022/05/25 00:30:57;;;;;;;1.23;0.85;;;;;;;;;;515432;28;1422;-85
2022/05/25 00:31:14;;;;;;;2.10;0.93;;;;;;;;;;516478;28;1485;-85
2022/05/25 00:31:30;;;;;;;2.70;1.10;;;;;;;;;;517359;28;1463;-85
2022/05/25 00:31:47;;;;;;;1.92;1.00;;;;;;;;;;519456;28;1505;-86
2022/05/25 00:32:04;;;;;;;1.95;0.98;;;;;;;;;;516702;28;1588;-85
2022/05/25 00:32:22;;;;;;;1.85;0.93;;;;;;;;;;517903;28;1420;-85
2022/05/25 00:32:40;;;;;;;2.78;0.98;;;;;;;;;;516370;28;1455;-85
2022/05/25 00:32:56;;;;;;;3.40;0.93;;;;;;;;;;515387;28;1540;-85
2022/05/25 00:33:13;;;;;;;2.50;1.00;;;;;;;;;;516864;28;1539;-85
2022/05/25 00:33:28;;;;;;;1.80;0.90;;;;;;;;;;519195;28;1487;-85
2022/05/25 00:33:43;;;;;;;2.30;0.87;;;;;;;;;;517042;28;1463;-85
2022/05/25 00:33:59;;;;;;;1.93;0.80;;;;;;;;;;516646;28;1584;-86
2022/05/25 00:34:15;;;;;;;1.70;0.80;;;;;;;;;;515802;28;1460;-85
2022/05/25 00:34:30;;;;;;;1.63;0.80;;;;;;;;;;516634;28;1603;-86
2022/05/25 00:34:45;;;;;;;2.40;0.85;;;;;;;;;;515816;28;1533;-85
2022/05/25 00:35:01;;;;;;;2.03;0.83;;;;;;;;;;514818;28;1422;-85
2022/05/25 00:35:19;;;;;;;1.48;0.88;;;;;;;;;;517076;28;1430;-85
2022/05/25 00:35:36;;;;;;;1.90;0.90;;;;;;;;;;518919;28;1521;-85
2022/05/25 00:35:52;;;;;;;3.28;0.90;;;;;;;;;;521034;28;1554;-86
2022/05/25 00:36:07;;;;;;;2.55;0.85;;;;;;;;;;517402;28;1574;-85
2022/05/25 00:36:23;;;;;;;1.97;0.80;;;;;;;;;;517617;28;1487;-86
2022/05/25 00:36:39;;;;;;;4.38;0.85;;;;;;;;;;517555;28;1524;-85
2022/05/25 00:36:54;;;;;;;5.13;0.90;;;;;;;;;;517213;28;1915;-85
2022/05/25 00:37:09;;;;;;;3.13;1.00;;;;;;;;;;516158;28;1483;-85
2022/05/25 00:37:26;;;;;;;2.60;1.07;;;;;;;;;;514807;28;1542;-85
2022/05/25 00:37:42;;;;;;;2.30;1.00;;;;;;;;;;516072;28;1401;-85
2022/05/25 00:37:58;;;;;;;2.15;0.90;;;;;;;;;;514449;28;1632;-85
2022/05/25 00:38:15;;;;;;;2.15;0.88;;;;;;;;;;515775;28;1487;-85
2022/05/25 00:38:30;;;;;;;3.10;0.88;;;;;;;;;;518801;28;1510;-85
2022/05/25 00:38:45;;;;;;;3.70;0.80;;;;;;;;;;517787;28;1570;-85
2022/05/25 00:39:02;;;;;;;2.13;0.77;;;;;;;;;;517422;28;1511;-85
2022/05/25 00:39:18;;;;;;;1.85;0.80;;;;;;;;;;515581;28;1577;-85
2022/05/25 00:39:33;;;;;;;2.10;0.80;;;;;;;;;;516406;28;1503;-85
2022/05/25 00:39:48;;;;;;;2.13;0.80;;;;;;;;;;517272;28;1491;-86
2022/05/25 00:40:05;;;;;;;2.10;0.90;;;;;;;;;;515269;28;1561;-85
2022/05/25 00:40:34;;;;;;;2.33;0.80;;;;;;;;;;513714;28;1655;-85
2022/05/25 00:40:49;;;;;;;4.93;0.90;;;;;;;;;;515342;28;1592;-86
2022/05/25 00:41:07;;;;;;;4.10;1.00;;;;;;;;;;515222;28;1611;-85
2022/05/25 00:41:24;;;;;;;2.60;0.90;;;;;;;;;;516524;28;1389;-85
2022/05/25 00:41:40;;;;;;;1.52;0.80;;;;;;;;;;514574;28;1564;-85
2022/05/25 00:41:55;;;;;;;1.30;0.80;;;;;;;;;;514958;28;1409;-85
2022/05/25 00:42:12;;;;;;;1.57;0.90;;;;;;;;;;517124;28;1543;-85
2022/05/25 00:42:27;;;;;;;1.70;0.80;;;;;;;;;;514860;28;1679;-86
2022/05/25 00:42:43;;;;;;;2.03;0.87;;;;;;;;;;516342;28;1650;-85
2022/05/25 00:42:58;;;;;;;2.60;0.90;;;;;;;;;;518086;28;1432;-86
2022/05/25 00:43:14;;;;;;;1.93;0.80;;;;;;;;;;515411;28;1452;-86
2022/05/25 00:43:29;;;;;;;1.75;0.80;;;;;;;;;;515626;28;1539;-85
2022/05/25 00:43:44;;;;;;;2.40;0.80;;;;;;;;;;513843;28;1414;-85
2022/05/25 00:44:00;;;;;;;1.98;0.80;;;;;;;;;;516026;28;1448;-85
2022/05/25 00:44:17;;;;;;;1.50;0.90;;;;;;;;;;516242;28;1508;-85
2022/05/25 00:44:32;;;;;;;1.48;0.80;;;;;;;;;;517249;28;1566;-85
2022/05/25 00:44:48;;;;;;;2.00;0.77;;;;;;;;;;519980;28;1435;-85
2022/05/25 00:45:05;;;;;;;3.22;0.80;;;;;;;;;;519428;28;1825;-86
2022/05/25 00:45:20;;;;;;;2.75;0.85;;;;;;;;;;519740;28;1583;-85
2022/05/25 00:45:44;;;;;;;2.08;0.80;;;;;;;;;;517484;28;1436;-85
2022/05/25 00:46:06;;;;;;;1.48;0.70;;;;;;;;;;515605;28;1499;-85
2022/05/25 00:46:23;;;;;;;1.70;0.80;;;;;;;;;;515740;28;1552;-85
2022/05/25 00:46:39;;;;;;;2.03;0.80;;;;;;;;;;515973;28;1549;-85
2022/05/25 00:46:54;;;;;;;3.20;0.90;;;;;;;;;;515683;28;1536;-86
2022/05/25 00:47:13;;;;;;;3.97;0.90;;;;;;;;;;515724;28;1393;-85
2022/05/25 00:47:30;;;;;;;2.95;0.90;;;;;;;;;;514698;28;1511;-85
2022/05/25 00:47:49;;;;;;;1.77;0.80;;;;;;;;;;516436;28;1479;-85
2022/05/25 00:48:07;;;;;;;2.75;0.90;;;;;;;;;;516292;28;1394;-85
2022/05/25 00:48:35;;;;;;;2.30;0.88;;;;;;;;;;515483;28;1520;-85
2022/05/25 00:48:54;;;;;;;2.13;0.90;;;;;;;;;;518188;28;1546;-85
2022/05/25 00:49:25;;;;;;;1.42;0.90;;;;;;;;;;519354;28;1660;-85
2022/05/25 00:49:41;;;;;;;1.92;0.73;;;;;;;;;;516630;28;1455;-86
2022/05/25 00:49:56;;;;;;;1.45;0.80;;;;;;;;;;516760;28;1900;-85
2022/05/25 00:50:14;;;;;;;2.77;0.90;;;;;;;;;;516514;28;1503;-86
2022/05/25 00:51:11;;;;;;;4.30;0.98;;;;;;;;;;518631;28;1496;-85
2022/05/25 00:51:21;;;;;;;2.80;0.80;;;;;;;;;;518463;28;1620;-86
2022/05/25 00:51:41;;;;;;;2.47;0.88;;;;;;;;;;520154;28;1554;-85
2022/05/25 00:52:07;;;;;;;1.65;0.80;;;;;;;;;;519531;28;1710;-86
2022/05/25 00:52:22;;;;;;;1.60;0.80;;;;;;;;;;520545;28;1753;-85
2022/05/25 00:52:40;;;;;;;2.03;0.87;;;;;;;;;;521880;28;1475;-85
2022/05/25 00:52:56;;;;;;;1.85;0.90;;;;;;;;;;519385;28;1370;-85
2022/05/25 00:53:12;;;;;;;1.67;0.90;;;;;;;;;;518937;28;1872;-85
2022/05/25 00:53:27;;;;;;;1.80;0.90;;;;;;;;;;516770;28;1515;-85
2022/05/25 00:53:47;;;;;;;1.80;0.90;;;;;;;;;;516128;28;1790;-85
2022/05/25 00:54:08;;;;;;;3.80;0.90;;;;;;;;;;515132;28;1474;-85
2022/05/25 00:54:29;;;;;;;2.92;0.90;;;;;;;;;;514807;28;1499;-85
2022/05/25 00:54:59;;;;;;;1.50;0.80;;;;;;;;;;515320;28;1472;-85
2022/05/25 00:55:28;;;;;;;1.73;0.80;;;;;;;;;;513769;28;1674;-85
2022/05/25 00:55:44;;;;;;;2.35;0.90;;;;;;;;;;515397;28;1507;-85
2022/05/25 00:56:00;;;;;;;2.03;0.90;;;;;;;;;;515161;28;1436;-85
2022/05/25 00:56:18;;;;;;;1.55;0.70;;;;;;;;;;515212;28;1681;-86
2022/05/25 00:56:35;;;;;;;2.13;0.70;;;;;;;;;;515337;28;1488;-86
2022/05/25 00:56:51;;;;;;;2.55;0.80;;;;;;;;;;517659;28;1959;-85
2022/05/25 00:57:29;;;;;;;2.33;0.80;;;;;;;;;;518706;28;1483;-85
2022/05/25 00:57:47;;;;;;;2.85;0.90;;;;;;;;;;519681;28;1404;-85
2022/05/25 00:58:05;;;;;;;3.58;1.00;;;;;;;;;;519262;28;1770;-86
2022/05/25 00:58:22;;;;;;;2.00;0.90;;;;;;;;;;520116;28;1647;-85
2022/05/25 00:58:39;;;;;;;2.30;0.75;;;;;;;;;;519420;28;1556;-85
2022/05/25 00:59:19;;;;;;;1.92;0.70;;;;;;;;;;519194;28;1661;-85
2022/05/25 00:59:50;;;;;;;1.88;0.80;;;;;;;;;;507352;29;1835;-85
2022/05/25 01:00:13;;;;;;;2.03;0.80;;;;;;;;;;515362;28;1862;-85
2022/05/25 01:00:30;;;;;;;2.15;0.80;;;;;;;;;;513932;28;1481;-85
2022/05/25 01:00:46;;;;;;;2.67;0.90;;;;;;;;;;517088;28;1591;-85
2022/05/25 01:01:01;;;;;;;2.27;0.80;;;;;;;;;;518818;28;1881;-85
2022/05/25 01:01:17;;;;;;;1.91;0.79;;;;;;;;;;171593;28;10000756;-86
2022/05/25 01:01:41;;;;;;;2.65;0.83;;;;;;;;;;423119;28;10000843;-85
2022/05/25 01:01:57;;;;;;;2.20;0.80;;;;;;;;;;517289;28;1786;-85
2022/05/25 01:02:13;;;;;;;1.52;0.80;;;;;;;;;;514645;28;1448;-86
2022/05/25 01:02:29;;;;;;;1.50;0.80;;;;;;;;;;517219;28;1431;-85
2022/05/25 01:02:51;;;;;;;2.30;1.00;;;;;;;;;;514688;28;1710;-85
2022/05/25 01:03:10;;;;;;;2.50;1.00;;;;;;;;;;515970;28;1599;-85
2022/05/25 01:03:25;;;;;;;2.05;0.80;;;;;;;;;;517606;28;1451;-86
2022/05/25 01:03:40;;;;;;;1.40;0.70;;;;;;;;;;515301;28;1650;-86
2022/05/25 01:03:56;;;;;;;1.63;0.80;;;;;;;;;;514914;28;1630;-86
2022/05/25 01:04:13;;;;;;;2.47;0.97;;;;;;;;;;514064;28;1516;-86
2022/05/25 01:04:28;;;;;;;1.88;0.80;;;;;;;;;;514535;28;1425;-85
2022/05/25 01:04:44;;;;;;;2.55;0.80;;;;;;;;;;515443;28;1634;-85
2022/05/25 01:04:59;;;;;;;2.60;0.80;;;;;;;;;;514597;28;1512;-85
2022/05/25 01:05:18;;;;;;;1.35;0.80;;;;;;;;;;514052;28;1555;-86
2022/05/25 01:06:09;;;;;;;1.00;0.70;;;;;;;;;;513115;28;1765;-85
2022/05/25 01:06:30;;;;;;;1.67;0.73;;;;;;;;;;517127;28;1483;-86
2022/05/25 01:07:29;;;;;;;2.80;0.70;;;;;;;;;;515736;28;1614;-85
2022/05/25 01:08:03;;;;;;;2.40;0.77;;;;;;;;;;520247;28;1505;-86
2022/05/25 01:08:27;;;;;;;1.33;0.70;;;;;;;;;;518547;28;1611;-85
2022/05/25 01:08:54;;;;;;;1.40;0.80;;;;;;;;;;519429;28;1623;-86
2022/05/25 01:09:28;;;;;;;1.77;0.80;;;;;;;;;;520752;28;1658;-85
2022/05/25 01:09:59;;;;;;;2.83;0.80;;;;;;;;;;518184;28;1436;-86
2022/05/25 01:10:34;;;;;;;3.05;0.80;;;;;;;;;;517973;28;1564;-85
2022/05/25 01:11:36;;;;;;;1.95;0.85;;;;;;;;;;514919;28;1642;-85
2022/05/25 01:11:51;;;;;;;3.17;0.80;;;;;;;;;;515859;28;1504;-85
2022/05/25 01:12:15;;;;;;;1.50;0.80;;;;;;;;;;519766;28;1432;-85
2022/05/25 01:12:58;;;;;;;2.42;0.80;;;;;;;;;;517981;28;1481;-85
2022/05/25 01:13:32;;;;;;;2.88;0.90;;;;;;;;;;515160;28;1579;-85
2022/05/25 01:14:13;;;;;;;2.53;0.80;;;;;;;;;;516403;28;1760;-85
2022/05/25 01:15:01;;;;;;;2.75;0.90;;;;;;;;;;515223;28;1310;-85
2022/05/25 01:15:37;;;;;;;3.17;0.90;;;;;;;;;;516535;28;953;-83
2022/05/25 01:16:17;;;;;;;1.40;0.90;;;;;;;;;;516505;28;1356;-83
2022/05/25 01:16:50;;;;;;;2.15;0.80;;;;;;;;;;516542;28;926;-83
2022/05/25 01:17:21;;;;;;;2.20;0.80;;;;;;;;;;516394;28;1278;-83
2022/05/25 01:17:59;;;;;;;1.90;0.80;;;;;;;;;;516223;28;1458;-84
2022/05/25 01:18:36;;;;;;;2.30;0.90;;;;;;;;;;516479;28;1149;-84
2022/05/25 01:18:57;;;;;;;2.92;0.80;;;;;;;;;;518555;28;952;-84
2022/05/25 01:19:37;;;;;;;1.73;0.82;;;;;;;;;;516580;28;1266;-84
2022/05/25 01:20:11;;;;;;;2.40;1.00;;;;;;;;;;514402;28;1235;-83
2022/05/25 01:20:41;;;;;;;1.85;0.88;;;;;;;;;;516204;28;1355;-83
2022/05/25 01:21:35;;;;;;;2.95;0.98;;;;;;;;;;516441;28;1253;-83
2022/05/25 01:22:05;;;;;;;2.30;0.80;;;;;;;;;;514174;28;1371;-83
2022/05/25 01:22:57;;;;;;;2.03;1.00;;;;;;;;;;514455;28;1024;-83
2022/05/25 01:23:39;;;;;;;4.13;0.80;;;;;;;;;;514367;28;1270;-84
2022/05/25 01:24:33;;;;;;;1.90;0.85;;;;;;;;;;514415;28;934;-83
2022/05/25 01:24:55;;;;;;;2.30;0.80;;;;;;;;;;518330;28;1231;-83
2022/05/25 01:25:36;;;;;;;3.17;0.90;;;;;;;;;;516132;28;1291;-83
2022/05/25 01:26:03;;;;;;;2.10;0.88;;;;;;;;;;517839;28;1451;-83
2022/05/25 01:26:37;;;;;;;1.25;0.80;;;;;;;;;;518195;28;865;-83
2022/05/25 01:27:23;;;;;;;3.20;0.88;;;;;;;;;;516204;28;1375;-83
2022/05/25 01:27:42;;;;;;;1.60;0.80;;;;;;;;;;514122;28;1521;-87
2022/05/25 01:28:08;;;;;;;1.95;0.85;;;;;;;;;;516000;28;1428;-85
2022/05/25 01:28:42;;;;;;;2.15;0.88;;;;;;;;;;512993;28;1644;-85
2022/05/25 01:29:19;;;;;;;2.35;0.80;;;;;;;;;;516737;28;1459;-86
2022/05/25 01:29:49;;;;;;;1.13;0.75;;;;;;;;;;515381;28;1428;-85
2022/05/25 01:30:21;;;;;;;3.13;0.93;;;;;;;;;;513678;28;1508;-85
2022/05/25 01:30:41;;;;;;;2.15;0.80;;;;;;;;;;514425;28;1479;-85
2022/05/25 01:30:58;;;;;;;1.83;0.90;;;;;;;;;;513701;28;1500;-86
2022/05/25 01:31:29;;;;;;;1.15;0.90;;;;;;;;;;513519;28;1472;-86
2022/05/25 01:31:54;;;;;;;1.42;0.80;;;;;;;;;;515825;28;1333;-86
2022/05/25 01:32:16;;;;;;;4.68;0.93;;;;;;;;;;515752;28;1651;-85
2022/05/25 01:32:51;;;;;;;2.22;0.90;;;;;;;;;;514915;28;1531;-86
2022/05/25 01:33:27;;;;;;;3.42;0.90;;;;;;;;;;513153;28;1454;-86
2022/05/25 01:33:55;;;;;;;2.03;0.90;;;;;;;;;;512781;28;1780;-85
2022/05/25 01:34:32;;;;;;;2.38;0.90;;;;;;;;;;514143;28;1508;-85
2022/05/25 01:35:03;;;;;;;1.50;0.85;;;;;;;;;;514001;28;1488;-85
2022/05/25 01:36:01;;;;;;;1.80;0.90;;;;;;;;;;516642;28;1419;-85
2022/05/25 01:36:36;;;;;;;2.20;0.90;;;;;;;;;;510212;29;1447;-85
2022/05/25 01:37:13;;;;;;;1.42;0.80;;;;;;;;;;508593;29;1907;-85
2022/05/25 01:37:39;;;;;;;1.52;0.85;;;;;;;;;;511847;28;1427;-85
2022/05/25 01:38:13;;;;;;;3.00;1.00;;;;;;;;;;510636;28;1476;-86
2022/05/25 01:38:35;;;;;;;2.85;1.00;;;;;;;;;;510520;28;1611;-85
2022/05/25 01:39:09;;;;;;;2.75;1.00;;;;;;;;;;511276;28;1578;-85
2022/05/25 01:39:30;;;;;;;1.52;0.90;;;;;;;;;;508640;29;1800;-85
2022/05/25 01:40:00;;;;;;;1.33;0.80;;;;;;;;;;509624;29;1605;-85
2022/05/25 01:40:37;;;;;;;1.65;0.90;;;;;;;;;;509037;29;1685;-85
2022/05/25 01:41:01;;;;;;;1.75;0.80;;;;;;;;;;506956;29;1581;-85
2022/05/25 01:41:25;;;;;;;1.10;0.70;;;;;;;;;;504737;29;1954;-85
2022/05/25 01:42:03;;;;;;;3.03;0.73;;;;;;;;;;505732;29;1598;-85
2022/05/25 01:42:27;;;;;;;1.52;0.80;;;;;;;;;;510249;28;2142;-85
2022/05/25 01:42:52;;;;;;;2.50;0.90;;;;;;;;;;515129;28;1670;-85
2022/05/25 01:43:16;;;;;;;2.15;0.80;;;;;;;;;;519017;28;1746;-85
2022/05/25 01:43:39;;;;;;;1.50;0.88;;;;;;;;;;518762;28;1635;-86
2022/05/25 01:43:58;;;;;;;2.45;0.98;;;;;;;;;;519044;28;1479;-86
2022/05/25 01:44:21;;;;;;;3.40;1.00;;;;;;;;;;518992;28;1497;-85
2022/05/25 01:44:44;;;;;;;2.50;0.90;;;;;;;;;;519361;28;1514;-85
2022/05/25 01:45:05;;;;;;;3.17;0.90;;;;;;;;;;518538;28;1526;-86
2022/05/25 01:45:23;;;;;;;3.80;0.90;;;;;;;;;;516892;28;1372;-85
2022/05/25 01:45:46;;;;;;;2.33;0.90;;;;;;;;;;516327;28;1621;-85
2022/05/25 01:46:09;;;;;;;1.60;0.80;;;;;;;;;;516446;28;1557;-85
2022/05/25 01:46:29;;;;;;;2.65;0.90;;;;;;;;;;514148;28;1580;-85
2022/05/25 01:46:48;;;;;;;3.10;0.80;;;;;;;;;;512544;28;1496;-85
2022/05/25 01:47:06;;;;;;;3.15;0.90;;;;;;;;;;512772;28;1505;-86
2022/05/25 01:47:26;;;;;;;3.28;0.90;;;;;;;;;;512951;28;1771;-85
2022/05/25 01:47:46;;;;;;;2.55;0.90;;;;;;;;;;512551;28;1457;-85
2022/05/25 01:48:05;;;;;;;2.33;0.90;;;;;;;;;;510515;28;1502;-85
2022/05/25 01:48:24;;;;;;;3.10;0.95;;;;;;;;;;508897;29;1553;-86
2022/05/25 01:48:41;;;;;;;2.58;0.90;;;;;;;;;;512677;28;1558;-85
2022/05/25 01:48:58;;;;;;;1.88;0.80;;;;;;;;;;512707;28;1426;-85
2022/05/25 01:49:20;;;;;;;1.70;0.75;;;;;;;;;;514512;28;1510;-85
2022/05/25 01:49:44;;;;;;;2.28;0.80;;;;;;;;;;514637;28;1413;-85
2022/05/25 01:50:08;;;;;;;2.08;0.80;;;;;;;;;;516222;28;1638;-85
2022/05/25 01:50:33;;;;;;;3.30;0.90;;;;;;;;;;516875;28;1464;-85
2022/05/25 01:50:52;;;;;;;3.78;0.90;;;;;;;;;;513795;28;1414;-85
2022/05/25 01:51:12;;;;;;;2.80;0.90;;;;;;;;;;514980;28;1584;-85
2022/05/25 01:51:35;;;;;;;1.95;0.95;;;;;;;;;;515294;28;1528;-85
2022/05/25 01:52:00;;;;;;;1.77;0.90;;;;;;;;;;515068;28;1436;-85
2022/05/25 01:52:21;;;;;;;2.90;1.00;;;;;;;;;;515052;28;1421;-85
2022/05/25 01:52:50;;;;;;;1.05;0.80;;;;;;;;;;515182;28;1652;-84
2022/05/25 01:53:09;;;;;;;2.00;0.82;;;;;;;;;;514641;28;1618;-85
2022/05/25 01:53:30;;;;;;;2.08;0.90;;;;;;;;;;512580;28;1649;-85
2022/05/25 01:53:51;;;;;;;2.70;0.90;;;;;;;;;;514662;28;1463;-84
2022/05/25 01:54:09;;;;;;;3.03;1.00;;;;;;;;;;516339;28;1601;-85
2022/05/25 01:54:30;;;;;;;1.98;1.10;;;;;;;;;;516823;28;1460;-85
2022/05/25 01:54:58;;;;;;;1.27;0.80;;;;;;;;;;514933;28;1466;-84
2022/05/25 01:55:25;;;;;;;2.72;1.00;;;;;;;;;;514311;28;1406;-85
2022/05/25 01:55:49;;;;;;;1.92;0.90;;;;;;;;;;514407;28;1616;-85
2022/05/25 01:56:08;;;;;;;2.75;1.00;;;;;;;;;;516497;28;1708;-85
2022/05/25 01:56:27;;;;;;;2.25;0.90;;;;;;;;;;514024;28;1555;-85
2022/05/25 01:56:47;;;;;;;1.42;0.88;;;;;;;;;;515740;28;1491;-85
2022/05/25 01:57:10;;;;;;;1.35;0.90;;;;;;;;;;514659;28;1993;-85
2022/05/25 01:57:29;;;;;;;2.50;1.00;;;;;;;;;;514070;28;1539;-85
2022/05/25 01:57:49;;;;;;;2.10;0.82;;;;;;;;;;513784;28;1757;-85
2022/05/25 01:58:11;;;;;;;1.90;0.90;;;;;;;;;;514225;28;1855;-85
2022/05/25 01:58:27;;;;;;;1.90;1.00;;;;;;;;;;516527;28;1469;-85
2022/05/25 01:58:46;;;;;;;2.53;0.80;;;;;;;;;;518425;28;1563;-85
2022/05/25 01:59:03;;;;;;;3.05;0.90;;;;;;;;;;516876;28;1490;-85
2022/05/25 01:59:20;;;;;;;4.10;1.00;;;;;;;;;;516721;28;1608;-85
2022/05/25 01:59:35;;;;;;;4.78;1.10;;;;;;;;;;516797;28;1785;-85
2022/05/25 01:59:51;;;;;;;3.30;1.10;;;;;;;;;;519349;28;1451;-85
2022/05/25 02:00:07;;;;;;;2.10;1.10;;;;;;;;;;518693;28;1514;-85
2022/05/25 02:00:30;;;;;;;2.47;1.05;;;;;;;;;;516807;28;1633;-85
2022/05/25 02:00:51;;;;;;;1.70;1.10;;;;;;;;;;516800;28;1620;-85
2022/05/25 02:01:08;;;;;;;1.60;0.90;;;;;;;;;;514900;28;1516;-85
2022/05/25 02:01:25;;;;;;;1.77;0.90;;;;;;;;;;512648;28;1562;-85
2022/05/25 02:04:23;;;;;;;2.30;1.10;;;;;;;;;;520282;28;1470;-85
2022/05/25 02:04:40;;;;;;;2.17;1.10;;;;;;;;;;518978;28;1550;-85
2022/05/25 02:04:58;;;;;;;2.05;0.90;;;;;;;;;;518551;28;1534;-85
2022/05/25 02:05:17;;;;;;;2.20;1.00;;;;;;;;;;519457;28;1446;-85
2022/05/25 02:05:34;;;;;;;2.60;1.02;;;;;;;;;;516975;28;1527;-85
2022/05/25 02:06:19;;;;;;;1.92;1.00;;;;;;;;;;516620;28;1470;-85
2022/05/25 02:07:12;;;;;;;2.90;1.00;;;;;;;;;;506866;29;1473;-85
2022/05/25 02:08:05;;;;;;;3.03;1.10;;;;;;;;;;508166;29;1636;-86
2022/05/25 02:08:31;;;;;;;3.20;1.13;;;;;;;;;;515858;28;1456;-86
2022/05/25 02:09:05;;;;;;;3.40;1.10;;;;;;;;;;519352;28;1471;-85
2022/05/25 02:09:32;;;;;;;2.55;1.17;;;;;;;;;;516964;28;1490;-85
2022/05/25 02:10:02;;;;;;;3.85;1.20;;;;;;;;;;517895;28;1479;-85
2022/05/25 02:10:40;;;;;;;2.28;0.93;;;;;;;;;;516174;28;1459;-85
2022/05/25 02:11:08;;;;;;;1.50;1.10;;;;;;;;;;516662;28;1994;-85
2022/05/25 02:11:30;;;;;;;2.88;1.20;;;;;;;;;;518293;28;1476;-85
2022/05/25 02:11:50;;;;;;;4.18;1.38;;;;;;;;;;518533;28;1543;-85
2022/05/25 02:12:32;;;;;;;2.83;1.20;;;;;;;;;;518993;28;1396;-86
2022/05/25 02:13:06;;;;;;;2.10;1.20;;;;;;;;;;515221;28;1829;-86
2022/05/25 02:13:39;;;;;;;2.67;1.08;;;;;;;;;;516180;28;1507;-85
2022/05/25 02:14:31;;;;;;;3.88;1.20;;;;;;;;;;516704;28;1486;-86
2022/05/25 02:15:15;;;;;;;1.45;1.00;;;;;;;;;;515912;28;1501;-85
2022/05/25 02:15:49;;;;;;;2.20;1.10;;;;;;;;;;516749;28;1502;-85
2022/05/25 02:16:31;;;;;;;3.33;1.10;;;;;;;;;;518666;28;1593;-85
2022/05/25 02:17:02;;;;;;;3.08;1.20;;;;;;;;;;520727;28;1572;-85
2022/05/25 02:17:49;;;;;;;3.58;1.10;;;;;;;;;;520207;28;1579;-85
2022/05/25 02:18:10;;;;;;;3.95;1.10;;;;;;;;;;514447;28;1715;-86